Time,TemperatureF,DewpointF,PressureIn,WindDirection,WindDirectionDegrees,WindSpeedMPH,WindSpeedGustMPH,Humidity,HourlyPrecipIn,Conditions,Clouds,dailyrainin,SoftwareType,DateUTC
2013-01-20 00:00:00,46.5,40.7,30.23,ENE,71,0.0,0.0,80,0.00,,,0.00,VWS V14.01,2013-01-20 06:00:00,
2013-01-20 00:05:00,46.2,40.4,30.22,ENE,70,0.0,0.0,80,0.00,,,0.00,VWS V14.01,2013-01-20 06:05:00,
2013-01-20 00:10:00,45.6,39.8,30.22,ENE,70,0.0,0.0,80,0.00,,,0.00,VWS V14.01,2013-01-20 06:10:00,
2013-01-20 00:15:00,45.0,39.5,30.22,ENE,70,0.0,0.0,81,0.00,,,0.00,VWS V14.01,2013-01-20 06:15:00,
2013-01-20 00:20:00,45.0,40.2,30.22,ENE,70,0.0,0.0,83,0.00,,,0.00,VWS V14.01,2013-01-20 06:20:00,
2013-01-20 00:25:00,44.6,39.5,30.22,ENE,71,0.0,0.0,82,0.00,,,0.00,VWS V14.01,2013-01-20 06:25:00,
2013-01-20 00:30:00,43.8,38.7,30.22,ENE,70,0.0,0.0,82,0.00,,,0.00,VWS V14.01,2013-01-20 06:30:00,
2013-01-20 00:35:00,43.0,38.2,30.22,ENE,70,0.0,0.0,83,0.00,,,0.00,VWS V14.01,2013-01-20 06:35:00,
2013-01-20 00:40:00,42.5,37.7,30.22,ENE,70,0.0,0.0,83,0.00,,,0.00,VWS V14.01,2013-01-20 06:40:00,
2013-01-20 00:45:00,42.6,38.7,30.22,ENE,70,0.0,0.0,86,0.00,,,0.00,VWS V14.01,2013-01-20 06:45:00,
2013-01-20 00:50:00,42.4,38.2,30.22,ENE,70,0.0,0.0,85,0.00,,,0.00,VWS V14.01,2013-01-20 06:50:00,
2013-01-20 00:55:00,42.0,37.8,30.22,ENE,70,0.0,0.0,85,0.00,,,0.00,VWS V14.01,2013-01-20 06:55:00,
2013-01-20 01:00:00,41.6,37.7,30.22,ENE,70,0.0,0.0,86,0.00,,,0.00,VWS V14.01,2013-01-20 07:00:00,
2013-01-20 01:05:00,41.1,37.2,30.22,ENE,70,0.0,0.0,86,0.00,,,0.00,VWS V14.01,2013-01-20 07:05:00,
2013-01-20 01:10:00,40.8,36.9,30.21,ENE,70,0.0,0.0,86,0.00,,,0.00,VWS V14.01,2013-01-20 07:10:00,
2013-01-20 01:15:00,40.6,37.0,30.21,ENE,70,0.0,0.0,87,0.00,,,0.00,VWS V14.01,2013-01-20 07:15:00,
2013-01-20 01:20:00,40.3,36.8,30.22,ENE,70,0.0,0.0,87,0.00,,,0.00,VWS V14.01,2013-01-20 07:20:00,
2013-01-20 01:25:00,40.4,37.1,30.22,ENE,70,0.0,0.0,88,0.00,,,0.00,VWS V14.01,2013-01-20 07:25:00,
2013-01-20 01:30:00,40.4,37.1,30.22,ENE,71,0.0,0.0,88,0.00,,,0.00,VWS V14.01,2013-01-20 07:30:00,
2013-01-20 01:35:00,39.9,36.3,30.22,ENE,71,0.0,0.0,87,0.00,,,0.00,VWS V14.01,2013-01-20 07:35:00,
2013-01-20 01:40:00,39.3,36.0,30.22,ENE,70,0.0,0.0,88,0.00,,,0.00,VWS V14.01,2013-01-20 07:40:00,
2013-01-20 01:45:00,40.2,37.2,30.22,ENE,68,0.0,0.0,89,0.00,,,0.00,VWS V14.01,2013-01-20 07:45:00,
2013-01-20 01:50:00,40.6,37.6,30.22,ENE,68,0.0,0.0,89,0.00,,,0.00,VWS V14.01,2013-01-20 07:50:00,
2013-01-20 01:55:00,40.8,37.8,30.23,ENE,68,0.0,0.0,89,0.00,,,0.00,VWS V14.01,2013-01-20 07:55:00,
2013-01-20 02:00:00,40.7,37.4,30.22,ENE,68,0.0,0.0,88,0.00,,,0.00,VWS V14.01,2013-01-20 08:00:00,
2013-01-20 02:05:00,41.7,39.0,30.22,ENE,68,0.0,0.0,90,0.00,,,0.00,VWS V14.01,2013-01-20 08:05:00,
2013-01-20 02:10:00,42.7,40.0,30.23,ENE,68,0.0,0.0,90,0.00,,,0.00,VWS V14.01,2013-01-20 08:10:00,
2013-01-20 02:15:00,43.3,40.0,30.23,ENE,68,0.0,0.0,88,0.00,,,0.00,VWS V14.01,2013-01-20 08:15:00,
2013-01-20 02:20:00,43.4,39.8,30.23,ENE,68,0.0,0.0,87,0.00,,,0.00,VWS V14.01,2013-01-20 08:20:00,
2013-01-20 02:25:00,43.5,39.9,30.23,ENE,68,0.0,0.0,87,0.00,,,0.00,VWS V14.01,2013-01-20 08:25:00,
2013-01-20 02:30:00,43.5,39.6,30.23,ENE,68,0.0,0.0,86,0.00,,,0.00,VWS V14.01,2013-01-20 08:30:00,
2013-01-20 02:35:00,42.9,38.4,30.22,ENE,68,0.0,1.0,84,0.00,,,0.00,VWS V14.01,2013-01-20 08:35:00,
2013-01-20 02:40:00,41.7,37.5,30.22,ENE,68,0.0,0.0,85,0.00,,,0.00,VWS V14.01,2013-01-20 08:40:00,
2013-01-20 02:45:00,40.9,37.0,30.22,ENE,68,0.0,0.0,86,0.00,,,0.00,VWS V14.01,2013-01-20 08:45:00,
2013-01-20 02:50:00,40.6,37.3,30.22,ENE,68,0.0,0.0,88,0.00,,,0.00,VWS V14.01,2013-01-20 08:50:00,
2013-01-20 02:55:00,40.8,37.5,30.22,ENE,68,0.0,0.0,88,0.00,,,0.00,VWS V14.01,2013-01-20 08:55:00,
2013-01-20 03:00:00,40.7,37.4,30.22,ENE,68,0.0,0.0,88,0.00,,,0.00,VWS V14.01,2013-01-20 09:00:00,
2013-01-20 03:05:00,40.6,37.3,30.22,ENE,68,0.0,0.0,88,0.00,,,0.00,VWS V14.01,2013-01-20 09:05:00,
2013-01-20 03:10:00,40.0,36.7,30.22,ENE,68,0.0,0.0,88,0.00,,,0.00,VWS V14.01,2013-01-20 09:10:00,
2013-01-20 03:15:00,39.6,36.6,30.22,ENE,69,0.0,0.0,89,0.00,,,0.00,VWS V14.01,2013-01-20 09:15:00,
2013-01-20 03:20:00,40.1,37.4,30.22,ENE,68,0.0,0.0,90,0.00,,,0.00,VWS V14.01,2013-01-20 09:20:00,
2013-01-20 03:25:00,39.4,36.2,30.22,ENE,68,0.0,0.0,88,0.00,,,0.00,VWS V14.01,2013-01-20 09:25:00,
2013-01-20 03:30:00,39.2,36.2,30.22,ENE,68,0.0,0.0,89,0.00,,,0.00,VWS V14.01,2013-01-20 09:30:00,
2013-01-20 03:35:00,39.5,36.8,30.22,NNE,23,0.0,1.0,90,0.00,,,0.00,VWS V14.01,2013-01-20 09:35:00,
2013-01-20 03:40:00,39.9,37.2,30.21,NW,313,1.0,2.0,90,0.00,,,0.00,VWS V14.01,2013-01-20 09:40:00,
2013-01-20 03:45:00,40.0,37.0,30.21,NW,315,0.0,1.0,89,0.00,,,0.00,VWS V14.01,2013-01-20 09:45:00,
2013-01-20 03:50:00,39.2,36.0,30.21,NW,315,0.0,1.0,88,0.00,,,0.00,VWS V14.01,2013-01-20 09:50:00,
2013-01-20 03:55:00,38.0,34.8,30.21,NW,315,0.0,1.0,88,0.00,,,0.00,VWS V14.01,2013-01-20 09:55:00,
2013-01-20 04:00:00,37.9,35.0,30.21,NW,315,0.0,0.0,89,0.00,,,0.00,VWS V14.01,2013-01-20 10:00:00,
2013-01-20 04:05:00,38.1,35.4,30.21,NW,315,0.0,0.0,90,0.00,,,0.00,VWS V14.01,2013-01-20 10:05:00,
2013-01-20 04:10:00,37.9,35.0,30.21,NW,315,0.0,0.0,89,0.00,,,0.00,VWS V14.01,2013-01-20 10:10:00,
2013-01-20 04:15:00,37.7,35.0,30.21,NW,315,0.0,0.0,90,0.00,,,0.00,VWS V14.01,2013-01-20 10:15:00,
2013-01-20 04:20:00,37.9,35.5,30.21,NW,315,0.0,0.0,91,0.00,,,0.00,VWS V14.01,2013-01-20 10:20:00,
2013-01-20 04:25:00,37.7,35.0,30.21,NW,315,0.0,0.0,90,0.00,,,0.00,VWS V14.01,2013-01-20 10:25:00,
2013-01-20 04:30:00,36.8,33.9,30.21,NE,49,0.0,1.0,89,0.00,,,0.00,VWS V14.01,2013-01-20 10:30:00,
2013-01-20 04:35:00,35.6,32.7,30.21,NE,50,0.0,1.0,89,0.00,,,0.00,VWS V14.01,2013-01-20 10:35:00,
2013-01-20 04:40:00,35.5,32.9,30.20,NNE,28,0.0,1.0,90,0.00,,,0.00,VWS V14.01,2013-01-20 10:40:00,
2013-01-20 04:45:00,36.3,33.9,30.20,North,11,1.0,1.0,91,0.00,,,0.00,VWS V14.01,2013-01-20 10:45:00,
2013-01-20 04:50:00,36.9,34.8,30.20,NNW,339,0.0,2.0,92,0.00,,,0.00,VWS V14.01,2013-01-20 10:50:00,
2013-01-20 04:55:00,37.2,34.8,30.20,NNW,339,0.0,0.0,91,0.00,,,0.00,VWS V14.01,2013-01-20 10:55:00,
2013-01-20 05:00:00,36.8,34.2,30.20,NNW,339,0.0,1.0,90,0.00,,,0.00,VWS V14.01,2013-01-20 11:00:00,
2013-01-20 05:05:00,36.1,33.5,30.20,NNW,339,0.0,0.0,90,0.00,,,0.00,VWS V14.01,2013-01-20 11:05:00,
2013-01-20 05:10:00,35.7,33.1,30.20,NNW,338,0.0,0.0,90,0.00,,,0.00,VWS V14.01,2013-01-20 11:10:00,
2013-01-20 05:15:00,35.4,32.8,30.20,NNW,339,0.0,0.0,90,0.00,,,0.00,VWS V14.01,2013-01-20 11:15:00,
2013-01-20 05:20:00,35.4,33.0,30.20,NNW,339,0.0,0.0,91,0.00,,,0.00,VWS V14.01,2013-01-20 11:20:00,
2013-01-20 05:25:00,35.2,32.8,30.20,NNW,339,0.0,0.0,91,0.00,,,0.00,VWS V14.01,2013-01-20 11:25:00,
2013-01-20 05:30:00,34.9,32.5,30.20,NNW,339,0.0,0.0,91,0.00,,,0.00,VWS V14.01,2013-01-20 11:30:00,
2013-01-20 05:35:00,34.7,32.3,30.20,NNW,338,0.0,0.0,91,0.00,,,0.00,VWS V14.01,2013-01-20 11:35:00,
2013-01-20 05:40:00,35.6,33.5,30.20,NW,307,3.0,3.0,92,0.00,,,0.00,VWS V14.01,2013-01-20 11:40:00,
2013-01-20 05:45:00,36.7,34.9,30.20,NW,321,0.0,3.0,93,0.00,,,0.00,VWS V14.01,2013-01-20 11:45:00,
2013-01-20 05:50:00,36.8,34.7,30.20,NW,320,0.0,0.0,92,0.00,,,0.00,VWS V14.01,2013-01-20 11:50:00,
2013-01-20 05:55:00,36.6,34.5,30.19,NW,321,1.0,1.0,92,0.00,,,0.00,VWS V14.01,2013-01-20 11:55:00,
2013-01-20 06:00:00,36.8,34.7,30.19,NW,320,0.0,2.0,92,0.00,,,0.00,VWS V14.01,2013-01-20 12:00:00,
2013-01-20 06:05:00,36.5,34.1,30.20,NW,320,0.0,0.0,91,0.00,,,0.00,VWS V14.01,2013-01-20 12:05:00,
2013-01-20 06:10:00,35.8,33.4,30.19,NW,321,0.0,0.0,91,0.00,,,0.00,VWS V14.01,2013-01-20 12:10:00,
2013-01-20 06:15:00,34.9,32.3,30.19,NW,320,1.0,1.0,90,0.00,,,0.00,VWS V14.01,2013-01-20 12:15:00,
2013-01-20 06:20:00,34.0,31.4,30.19,NW,320,0.0,1.0,90,0.00,,,0.00,VWS V14.01,2013-01-20 12:20:00,
2013-01-20 06:25:00,33.6,31.3,30.19,NW,320,0.0,0.0,91,0.00,,,0.00,VWS V14.01,2013-01-20 12:25:00,
2013-01-20 06:30:00,33.6,31.3,30.20,NW,320,0.0,0.0,91,0.00,,,0.00,VWS V14.01,2013-01-20 12:30:00,
2013-01-20 06:35:00,33.4,31.1,30.20,NW,320,0.0,0.0,91,0.00,,,0.00,VWS V14.01,2013-01-20 12:35:00,
2013-01-20 06:40:00,33.3,31.0,30.21,NW,321,0.0,0.0,91,0.00,,,0.00,VWS V14.01,2013-01-20 12:40:00,
2013-01-20 06:45:00,33.3,31.2,30.21,NW,320,0.0,0.0,92,0.00,,,0.00,VWS V14.01,2013-01-20 12:45:00,
2013-01-20 06:50:00,34.1,32.3,30.21,NW,321,0.0,0.0,93,0.00,,,0.00,VWS V14.01,2013-01-20 12:50:00,
2013-01-20 06:55:00,34.4,32.3,30.22,NW,321,0.0,0.0,92,0.00,,,0.00,VWS V14.01,2013-01-20 12:55:00,
2013-01-20 07:00:00,34.8,33.0,30.22,NW,320,0.0,0.0,93,0.00,,,0.00,VWS V14.01,2013-01-20 13:00:00,
2013-01-20 07:05:00,35.2,33.4,30.22,NNW,328,1.0,1.0,93,0.00,,,0.00,VWS V14.01,2013-01-20 13:05:00,
2013-01-20 07:10:00,35.4,33.6,30.22,NNW,327,0.0,1.0,93,0.00,,,0.00,VWS V14.01,2013-01-20 13:10:00,
2013-01-20 07:15:00,35.3,33.2,30.22,NNW,333,2.0,3.0,92,0.00,,,0.00,VWS V14.01,2013-01-20 13:15:00,
2013-01-20 07:20:00,35.7,33.9,30.23,NNW,330,3.0,4.0,93,0.00,,,0.00,VWS V14.01,2013-01-20 13:20:00,
2013-01-20 07:25:00,36.3,34.5,30.23,NNW,331,0.0,3.0,93,0.00,,,0.00,VWS V14.01,2013-01-20 13:25:00,
2013-01-20 07:30:00,36.4,34.3,30.23,NNW,329,2.0,4.0,92,0.00,,,0.00,VWS V14.01,2013-01-20 13:30:00,
2013-01-20 07:35:00,36.6,34.5,30.23,NNW,327,3.0,4.0,92,0.00,,,0.00,VWS V14.01,2013-01-20 13:35:00,
2013-01-20 07:40:00,37.0,34.9,30.23,NW,326,4.0,5.0,92,0.00,,,0.00,VWS V14.01,2013-01-20 13:40:00,
2013-01-20 07:45:00,37.2,35.1,30.23,NNW,332,2.0,4.0,92,0.00,,,0.00,VWS V14.01,2013-01-20 13:45:00,
2013-01-20 07:50:00,37.6,35.2,30.23,NNW,332,0.0,2.0,91,0.00,,,0.00,VWS V14.01,2013-01-20 13:50:00,
2013-01-20 07:55:00,38.1,35.4,30.23,NNW,332,0.0,1.0,90,0.00,,,0.00,VWS V14.01,2013-01-20 13:55:00,
2013-01-20 08:00:00,38.4,35.7,30.24,NNW,332,0.0,0.0,90,0.00,,,0.00,VWS V14.01,2013-01-20 14:00:00,
2013-01-20 08:05:00,39.3,36.6,30.24,NNW,331,0.0,0.0,90,0.00,,,0.00,VWS V14.01,2013-01-20 14:05:00,
2013-01-20 08:10:00,39.7,37.0,30.24,NNW,332,0.0,1.0,90,0.00,,,0.00,VWS V14.01,2013-01-20 14:10:00,
2013-01-20 08:15:00,40.1,37.4,30.25,NNW,331,0.0,0.0,90,0.00,,,0.00,VWS V14.01,2013-01-20 14:15:00,
2013-01-20 08:20:00,41.3,38.3,30.25,NNW,332,0.0,0.0,89,0.00,,,0.00,VWS V14.01,2013-01-20 14:20:00,
2013-01-20 08:25:00,41.7,38.7,30.25,NNW,332,0.0,0.0,89,0.00,,,0.00,VWS V14.01,2013-01-20 14:25:00,
2013-01-20 08:30:00,42.4,39.4,30.25,NNW,331,0.0,0.0,89,0.00,,,0.00,VWS V14.01,2013-01-20 14:30:00,
2013-01-20 08:35:00,43.6,40.6,30.25,North,5,0.0,1.0,89,0.00,,,0.00,VWS V14.01,2013-01-20 14:35:00,
2013-01-20 08:40:00,43.7,40.1,30.25,North,7,0.0,0.0,87,0.00,,,0.00,VWS V14.01,2013-01-20 14:40:00,
2013-01-20 08:45:00,43.9,40.3,30.25,NE,44,0.0,0.0,87,0.00,,,0.00,VWS V14.01,2013-01-20 14:45:00,
2013-01-20 08:50:00,44.7,41.1,30.25,NE,43,0.0,0.0,87,0.00,,,0.00,VWS V14.01,2013-01-20 14:50:00,
2013-01-20 08:55:00,45.9,42.0,30.25,NE,43,0.0,0.0,86,0.00,,,0.00,VWS V14.01,2013-01-20 14:55:00,
2013-01-20 09:00:00,47.0,42.7,30.25,NE,44,0.0,0.0,85,0.00,,,0.00,VWS V14.01,2013-01-20 15:00:00,
2013-01-20 09:05:00,47.6,42.7,30.25,NE,44,0.0,0.0,83,0.00,,,0.00,VWS V14.01,2013-01-20 15:05:00,
2013-01-20 09:10:00,48.1,42.9,30.25,NE,44,0.0,0.0,82,0.00,,,0.00,VWS V14.01,2013-01-20 15:10:00,
2013-01-20 09:15:00,48.7,43.1,30.25,NE,44,0.0,0.0,81,0.00,,,0.00,VWS V14.01,2013-01-20 15:15:00,
2013-01-20 09:20:00,49.7,44.1,30.26,NE,43,0.0,0.0,81,0.00,,,0.00,VWS V14.01,2013-01-20 15:20:00,
2013-01-20 09:25:00,51.1,44.5,30.26,NE,43,2.0,2.0,78,0.00,,,0.00,VWS V14.01,2013-01-20 15:25:00,
2013-01-20 09:30:00,51.1,43.5,30.26,South,188,2.0,3.0,75,0.00,,,0.00,VWS V14.01,2013-01-20 15:30:00,
2013-01-20 09:35:00,51.0,43.0,30.26,NW,315,1.0,4.0,74,0.00,,,0.00,VWS V14.01,2013-01-20 15:35:00,
2013-01-20 09:40:00,51.8,44.1,30.26,NW,311,1.0,2.0,75,0.00,,,0.00,VWS V14.01,2013-01-20 15:40:00,
2013-01-20 09:45:00,52.8,44.0,30.26,NW,306,2.0,4.0,72,0.00,,,0.00,VWS V14.01,2013-01-20 15:45:00,
2013-01-20 09:50:00,53.6,44.1,30.26,SW,229,3.0,5.0,70,0.00,,,0.00,VWS V14.01,2013-01-20 15:50:00,
2013-01-20 09:55:00,54.0,44.8,30.26,SW,229,4.0,5.0,71,0.00,,,0.00,VWS V14.01,2013-01-20 15:55:00,
2013-01-20 10:00:00,54.3,44.0,30.26,SSW,208,4.0,7.0,68,0.00,,,0.00,VWS V14.01,2013-01-20 16:00:00,
2013-01-20 10:05:00,54.4,44.1,30.26,SW,223,2.0,6.0,68,0.00,,,0.00,VWS V14.01,2013-01-20 16:05:00,
2013-01-20 10:10:00,54.7,44.4,30.26,SW,214,4.0,7.0,68,0.00,,,0.00,VWS V14.01,2013-01-20 16:10:00,
2013-01-20 10:15:00,55.4,44.6,30.26,SSW,203,2.0,5.0,67,0.00,,,0.00,VWS V14.01,2013-01-20 16:15:00,
2013-01-20 10:20:00,56.4,45.2,30.26,South,184,1.0,4.0,66,0.00,,,0.00,VWS V14.01,2013-01-20 16:20:00,
2013-01-20 10:25:00,57.4,44.5,30.26,West,272,2.0,5.0,62,0.00,,,0.00,VWS V14.01,2013-01-20 16:25:00,
2013-01-20 10:30:00,58.4,44.6,30.26,SSW,206,4.0,6.0,60,0.00,,,0.00,VWS V14.01,2013-01-20 16:30:00,
2013-01-20 10:35:00,58.9,44.6,30.26,WNW,300,2.0,4.0,59,0.00,,,0.00,VWS V14.01,2013-01-20 16:35:00,
2013-01-20 10:40:00,59.9,44.7,30.26,NW,306,1.0,5.0,57,0.00,,,0.00,VWS V14.01,2013-01-20 16:40:00,
2013-01-20 10:45:00,60.4,44.7,30.26,WNW,300,3.0,6.0,56,0.00,,,0.00,VWS V14.01,2013-01-20 16:45:00,
2013-01-20 10:50:00,61.2,44.9,30.26,WNW,292,2.0,6.0,55,0.00,,,0.00,VWS V14.01,2013-01-20 16:50:00,
2013-01-20 10:55:00,61.2,44.9,30.26,NNW,338,1.0,10.0,55,0.00,,,0.00,VWS V14.01,2013-01-20 16:55:00,
2013-01-20 11:00:00,61.8,45.0,30.26,WNW,287,6.0,7.0,54,0.00,,,0.00,VWS V14.01,2013-01-20 17:00:00,
2013-01-20 11:05:00,62.4,45.1,30.25,WNW,298,5.0,6.0,53,0.00,,,0.00,VWS V14.01,2013-01-20 17:05:00,
2013-01-20 11:10:00,62.9,45.0,30.25,NW,312,4.0,7.0,52,0.00,,,0.00,VWS V14.01,2013-01-20 17:10:00,
2013-01-20 11:15:00,62.6,44.8,30.25,NNW,337,6.0,7.0,52,0.00,,,0.00,VWS V14.01,2013-01-20 17:15:00,
2013-01-20 11:20:00,62.6,44.8,30.25,WNW,292,6.0,9.0,52,0.00,,,0.00,VWS V14.01,2013-01-20 17:20:00,
2013-01-20 11:25:00,62.5,44.7,30.25,NW,319,2.0,7.0,52,0.00,,,0.00,VWS V14.01,2013-01-20 17:25:00,
2013-01-20 11:30:00,63.3,45.4,30.24,SSW,208,4.0,8.0,52,0.00,,,0.00,VWS V14.01,2013-01-20 17:30:00,
2013-01-20 11:35:00,63.5,45.6,30.24,NNW,328,3.0,9.0,52,0.00,,,0.00,VWS V14.01,2013-01-20 17:35:00,
2013-01-20 11:40:00,64.0,45.5,30.23,WNW,293,4.0,6.0,51,0.00,,,0.00,VWS V14.01,2013-01-20 17:40:00,
2013-01-20 11:45:00,64.4,45.4,30.23,WSW,250,3.0,7.0,50,0.00,,,0.00,VWS V14.01,2013-01-20 17:45:00,
2013-01-20 11:50:00,64.7,45.7,30.23,WNW,296,4.0,8.0,50,0.00,,,0.00,VWS V14.01,2013-01-20 17:50:00,
2013-01-20 11:55:00,65.2,45.6,30.22,WNW,296,1.0,8.0,49,0.00,,,0.00,VWS V14.01,2013-01-20 17:55:00,
2013-01-20 12:00:00,65.8,45.6,30.22,WNW,296,3.0,7.0,48,0.00,,,0.00,VWS V14.01,2013-01-20 18:00:00,
2013-01-20 12:05:00,66.2,46.0,30.22,WNW,282,1.0,7.0,48,0.00,,,0.00,VWS V14.01,2013-01-20 18:05:00,
2013-01-20 12:10:00,66.6,46.3,30.21,South,191,6.0,7.0,48,0.00,,,0.00,VWS V14.01,2013-01-20 18:10:00,
2013-01-20 12:15:00,66.8,46.5,30.21,SW,222,6.0,9.0,48,0.00,,,0.00,VWS V14.01,2013-01-20 18:15:00,
2013-01-20 12:20:00,67.3,46.4,30.20,WSW,240,6.0,8.0,47,0.00,,,0.00,VWS V14.01,2013-01-20 18:20:00,
2013-01-20 12:25:00,67.7,46.8,30.19,SW,217,6.0,10.0,47,0.00,,,0.00,VWS V14.01,2013-01-20 18:25:00,
2013-01-20 12:30:00,67.8,45.7,30.19,SW,217,7.0,8.0,45,0.00,,,0.00,VWS V14.01,2013-01-20 18:30:00,
2013-01-20 12:35:00,67.7,45.6,30.18,SW,222,6.0,9.0,45,0.00,,,0.00,VWS V14.01,2013-01-20 18:35:00,
2013-01-20 12:40:00,67.6,44.9,30.18,SSW,209,2.0,10.0,44,0.00,,,0.00,VWS V14.01,2013-01-20 18:40:00,
2013-01-20 12:45:00,68.1,45.4,30.17,SSE,167,4.0,6.0,44,0.00,,,0.00,VWS V14.01,2013-01-20 18:45:00,
2013-01-20 12:50:00,67.5,44.8,30.17,SSW,208,3.0,8.0,44,0.00,,,0.00,VWS V14.01,2013-01-20 18:50:00,
2013-01-20 12:55:00,67.6,44.9,30.16,South,177,3.0,5.0,44,0.00,,,0.00,VWS V14.01,2013-01-20 18:55:00,
2013-01-20 13:00:00,68.5,43.9,30.16,WNW,294,6.0,14.0,41,0.00,,,0.00,VWS V14.01,2013-01-20 19:00:00,
2013-01-20 13:05:00,68.8,44.2,30.15,WSW,256,4.0,7.0,41,0.00,,,0.00,VWS V14.01,2013-01-20 19:05:00,
2013-01-20 13:10:00,69.6,44.2,30.15,West,275,4.0,6.0,40,0.00,,,0.00,VWS V14.01,2013-01-20 19:10:00,
2013-01-20 13:15:00,69.7,44.3,30.15,NNW,327,2.0,7.0,40,0.00,,,0.00,VWS V14.01,2013-01-20 19:15:00,
2013-01-20 13:20:00,69.9,43.8,30.14,NNE,23,0.0,7.0,39,0.00,,,0.00,VWS V14.01,2013-01-20 19:20:00,
2013-01-20 13:25:00,69.5,44.2,30.14,NNW,348,5.0,10.0,40,0.00,,,0.00,VWS V14.01,2013-01-20 19:25:00,
2013-01-20 13:30:00,69.6,43.6,30.14,North,4,1.0,6.0,39,0.00,,,0.00,VWS V14.01,2013-01-20 19:30:00,
2013-01-20 13:35:00,69.6,44.2,30.13,NNE,21,2.0,4.0,40,0.00,,,0.00,VWS V14.01,2013-01-20 19:35:00,
2013-01-20 13:40:00,70.2,44.8,30.13,North,353,1.0,7.0,40,0.00,,,0.00,VWS V14.01,2013-01-20 19:40:00,
2013-01-20 13:45:00,70.8,43.3,30.13,SW,234,6.0,12.0,37,0.00,,,0.00,VWS V14.01,2013-01-20 19:45:00,
2013-01-20 13:50:00,71.1,44.9,30.12,NW,322,1.0,7.0,39,0.00,,,0.00,VWS V14.01,2013-01-20 19:50:00,
2013-01-20 13:55:00,71.4,44.5,30.12,SW,230,3.0,10.0,38,0.00,,,0.00,VWS V14.01,2013-01-20 19:55:00,
2013-01-20 14:00:00,71.3,44.4,30.12,SSW,198,5.0,9.0,38,0.00,,,0.00,VWS V14.01,2013-01-20 20:00:00,
2013-01-20 14:05:00,71.3,43.7,30.11,South,186,5.0,7.0,37,0.00,,,0.00,VWS V14.01,2013-01-20 20:05:00,
2013-01-20 14:10:00,70.9,44.0,30.11,SSE,161,1.0,8.0,38,0.00,,,0.00,VWS V14.01,2013-01-20 20:10:00,
2013-01-20 14:15:00,71.7,44.1,30.11,South,187,3.0,7.0,37,0.00,,,0.00,VWS V14.01,2013-01-20 20:15:00,
2013-01-20 14:20:00,70.9,43.4,30.11,ESE,122,3.0,5.0,37,0.00,,,0.00,VWS V14.01,2013-01-20 20:20:00,
2013-01-20 14:25:00,70.5,43.7,30.11,ESE,113,0.0,6.0,38,0.00,,,0.00,VWS V14.01,2013-01-20 20:25:00,
2013-01-20 14:30:00,71.1,44.2,30.11,SW,223,7.0,7.0,38,0.00,,,0.00,VWS V14.01,2013-01-20 20:30:00,
2013-01-20 14:35:00,71.5,43.9,30.10,SSW,208,6.0,7.0,37,0.00,,,0.00,VWS V14.01,2013-01-20 20:35:00,
2013-01-20 14:40:00,71.8,44.2,30.10,NW,318,3.0,7.0,37,0.00,,,0.00,VWS V14.01,2013-01-20 20:40:00,
2013-01-20 14:45:00,72.0,44.3,30.10,South,175,3.0,5.0,37,0.00,,,0.00,VWS V14.01,2013-01-20 20:45:00,
2013-01-20 14:50:00,71.8,43.4,30.09,ESE,108,6.0,8.0,36,0.00,,,0.00,VWS V14.01,2013-01-20 20:50:00,
2013-01-20 14:55:00,71.2,42.9,30.09,East,98,2.0,8.0,36,0.00,,,0.00,VWS V14.01,2013-01-20 20:55:00,
2013-01-20 15:00:00,71.9,44.2,30.09,South,174,6.0,6.0,37,0.00,,,0.00,VWS V14.01,2013-01-20 21:00:00,
2013-01-20 15:05:00,72.4,43.2,30.09,SE,129,3.0,6.0,35,0.00,,,0.00,VWS V14.01,2013-01-20 21:05:00,
2013-01-20 15:10:00,72.0,42.1,30.09,SE,142,0.0,8.0,34,0.00,,,0.00,VWS V14.01,2013-01-20 21:10:00,
2013-01-20 15:15:00,72.5,42.6,30.08,NW,304,2.0,5.0,34,0.00,,,0.00,VWS V14.01,2013-01-20 21:15:00,
2013-01-20 15:20:00,72.8,42.0,30.08,NW,316,2.0,5.0,33,0.00,,,0.00,VWS V14.01,2013-01-20 21:20:00,
2013-01-20 15:25:00,72.7,42.0,30.08,SSE,149,4.0,8.0,33,0.00,,,0.00,VWS V14.01,2013-01-20 21:25:00,
2013-01-20 15:30:00,72.0,41.3,30.08,SE,133,3.0,6.0,33,0.00,,,0.00,VWS V14.01,2013-01-20 21:30:00,
2013-01-20 15:35:00,71.8,41.2,30.08,WNW,300,1.0,6.0,33,0.00,,,0.00,VWS V14.01,2013-01-20 21:35:00,
2013-01-20 15:40:00,72.0,41.3,30.08,SSE,154,4.0,6.0,33,0.00,,,0.00,VWS V14.01,2013-01-20 21:40:00,
2013-01-20 15:45:00,72.0,41.3,30.08,South,177,3.0,5.0,33,0.00,,,0.00,VWS V14.01,2013-01-20 21:45:00,
2013-01-20 15:50:00,71.8,41.2,30.08,SE,144,7.0,7.0,33,0.00,,,0.00,VWS V14.01,2013-01-20 21:50:00,
2013-01-20 15:55:00,71.9,40.5,30.08,South,181,0.0,8.0,32,0.00,,,0.00,VWS V14.01,2013-01-20 21:55:00,
2013-01-20 16:00:00,72.2,40.7,30.08,SSW,205,4.0,4.0,32,0.00,,,0.00,VWS V14.01,2013-01-20 22:00:00,
2013-01-20 16:05:00,72.5,40.2,30.08,SW,215,4.0,7.0,31,0.00,,,0.00,VWS V14.01,2013-01-20 22:05:00,
2013-01-20 16:10:00,72.4,40.1,30.08,WSW,243,2.0,8.0,31,0.00,,,0.00,VWS V14.01,2013-01-20 22:10:00,
2013-01-20 16:15:00,72.2,40.7,30.08,SE,137,2.0,5.0,32,0.00,,,0.00,VWS V14.01,2013-01-20 22:15:00,
2013-01-20 16:20:00,72.0,40.6,30.08,South,171,2.0,5.0,32,0.00,,,0.00,VWS V14.01,2013-01-20 22:20:00,
2013-01-20 16:25:00,71.9,39.7,30.08,SSE,165,1.0,5.0,31,0.00,,,0.00,VWS V14.01,2013-01-20 22:25:00,
2013-01-20 16:30:00,71.9,40.5,30.07,South,186,3.0,6.0,32,0.00,,,0.00,VWS V14.01,2013-01-20 22:30:00,
2013-01-20 16:35:00,72.0,40.6,30.07,SSE,160,2.0,5.0,32,0.00,,,0.00,VWS V14.01,2013-01-20 22:35:00,
2013-01-20 16:40:00,72.2,40.7,30.07,SW,225,3.0,4.0,32,0.00,,,0.00,VWS V14.01,2013-01-20 22:40:00,
2013-01-20 16:45:00,72.2,39.9,30.07,SE,142,3.0,4.0,31,0.00,,,0.00,VWS V14.01,2013-01-20 22:45:00,
2013-01-20 16:50:00,72.0,39.7,30.07,South,176,3.0,3.0,31,0.00,,,0.00,VWS V14.01,2013-01-20 22:50:00,
2013-01-20 16:55:00,71.9,39.7,30.07,SW,216,1.0,4.0,31,0.00,,,0.00,VWS V14.01,2013-01-20 22:55:00,
2013-01-20 17:00:00,71.8,39.6,30.07,ESE,116,2.0,3.0,31,0.00,,,0.00,VWS V14.01,2013-01-20 23:00:00,
2013-01-20 17:05:00,71.7,40.3,30.07,ESE,109,3.0,4.0,32,0.00,,,0.00,VWS V14.01,2013-01-20 23:05:00,
2013-01-20 17:10:00,71.5,40.1,30.07,SSE,165,1.0,3.0,32,0.00,,,0.00,VWS V14.01,2013-01-20 23:10:00,
2013-01-20 17:15:00,71.3,40.0,30.07,SE,135,2.0,3.0,32,0.00,,,0.00,VWS V14.01,2013-01-20 23:15:00,
2013-01-20 17:20:00,71.1,39.8,30.07,ESE,123,0.0,2.0,32,0.00,,,0.00,VWS V14.01,2013-01-20 23:20:00,
2013-01-20 17:25:00,70.8,39.5,30.07,ESE,123,1.0,1.0,32,0.00,,,0.00,VWS V14.01,2013-01-20 23:25:00,
2013-01-20 17:30:00,70.6,40.1,30.07,ESE,119,1.0,2.0,33,0.00,,,0.00,VWS V14.01,2013-01-20 23:30:00,
2013-01-20 17:35:00,70.0,40.4,30.07,East,85,1.0,2.0,34,0.00,,,0.00,VWS V14.01,2013-01-20 23:35:00,
2013-01-20 17:40:00,69.5,40.7,30.07,East,85,0.0,1.0,35,0.00,,,0.00,VWS V14.01,2013-01-20 23:40:00,
2013-01-20 17:45:00,68.7,41.4,30.07,East,87,0.0,0.0,37,0.00,,,0.00,VWS V14.01,2013-01-20 23:45:00,
2013-01-20 17:50:00,67.5,41.0,30.07,East,85,0.0,0.0,38,0.00,,,0.00,VWS V14.01,2013-01-20 23:50:00,
2013-01-20 17:55:00,66.3,41.9,30.07,East,85,1.0,1.0,41,0.00,,,0.00,VWS V14.01,2013-01-20 23:55:00,
2013-01-20 18:00:00,64.8,41.2,30.07,East,85,2.0,2.0,42,0.00,,,0.00,VWS V14.01,2013-01-21 00:00:00,
2013-01-20 18:05:00,64.7,41.7,30.07,East,85,0.0,1.0,43,0.00,,,0.00,VWS V14.01,2013-01-21 00:05:00,
2013-01-20 18:10:00,64.0,41.7,30.08,ENE,59,0.0,0.0,44,0.00,,,0.00,VWS V14.01,2013-01-21 00:10:00,
2013-01-20 18:15:00,63.4,41.7,30.07,ENE,59,0.0,0.0,45,0.00,,,0.00,VWS V14.01,2013-01-21 00:15:00,
2013-01-20 18:20:00,62.9,41.3,30.08,ENE,59,0.0,0.0,45,0.00,,,0.00,VWS V14.01,2013-01-21 00:20:00,
2013-01-20 18:25:00,62.7,41.1,30.08,ENE,59,0.0,0.0,45,0.00,,,0.00,VWS V14.01,2013-01-21 00:25:00,
2013-01-20 18:30:00,62.4,41.4,30.08,ENE,59,0.0,0.0,46,0.00,,,0.00,VWS V14.01,2013-01-21 00:30:00,
2013-01-20 18:35:00,62.0,42.1,30.08,ENE,59,0.0,0.0,48,0.00,,,0.00,VWS V14.01,2013-01-21 00:35:00,
2013-01-20 18:40:00,61.2,41.4,30.09,ENE,59,0.0,1.0,48,0.00,,,0.00,VWS V14.01,2013-01-21 00:40:00,
2013-01-20 18:45:00,60.6,41.4,30.09,ENE,59,2.0,2.0,49,0.00,,,0.00,VWS V14.01,2013-01-21 00:45:00,
2013-01-20 18:50:00,59.9,41.2,30.09,ENE,59,0.0,2.0,50,0.00,,,0.00,VWS V14.01,2013-01-21 00:50:00,
2013-01-20 18:55:00,59.5,41.4,30.09,ENE,59,0.0,0.0,51,0.00,,,0.00,VWS V14.01,2013-01-21 00:55:00,
2013-01-20 19:00:00,59.3,41.7,30.10,ENE,59,0.0,0.0,52,0.00,,,0.00,VWS V14.01,2013-01-21 01:00:00,
2013-01-20 19:05:00,59.2,42.1,30.10,ENE,59,0.0,0.0,53,0.00,,,0.00,VWS V14.01,2013-01-21 01:05:00,
2013-01-20 19:10:00,59.2,42.6,30.10,ENE,59,0.0,1.0,54,0.00,,,0.00,VWS V14.01,2013-01-21 01:10:00,
2013-01-20 19:15:00,58.9,42.8,30.10,ENE,59,1.0,1.0,55,0.00,,,0.00,VWS V14.01,2013-01-21 01:15:00,
2013-01-20 19:20:00,59.0,43.3,30.09,East,91,2.0,3.0,56,0.00,,,0.00,VWS V14.01,2013-01-21 01:20:00,
2013-01-20 19:25:00,59.0,43.8,30.10,East,92,1.0,2.0,57,0.00,,,0.00,VWS V14.01,2013-01-21 01:25:00,
2013-01-20 19:30:00,59.3,44.1,30.10,ENE,65,0.0,1.0,57,0.00,,,0.00,VWS V14.01,2013-01-21 01:30:00,
2013-01-20 19:35:00,59.1,43.9,30.10,ENE,66,0.0,2.0,57,0.00,,,0.00,VWS V14.01,2013-01-21 01:35:00,
2013-01-20 19:40:00,58.5,43.8,30.10,ENE,66,0.0,0.0,58,0.00,,,0.00,VWS V14.01,2013-01-21 01:40:00,
2013-01-20 19:45:00,58.4,44.6,30.10,ENE,66,1.0,1.0,60,0.00,,,0.00,VWS V14.01,2013-01-21 01:45:00,
2013-01-20 19:50:00,58.1,44.3,30.10,ENE,68,1.0,1.0,60,0.00,,,0.00,VWS V14.01,2013-01-21 01:50:00,
2013-01-20 19:55:00,58.0,44.6,30.11,ENE,67,1.0,1.0,61,0.00,,,0.00,VWS V14.01,2013-01-21 01:55:00,
2013-01-20 20:00:00,57.9,44.5,30.11,ENE,67,1.0,1.0,61,0.00,,,0.00,VWS V14.01,2013-01-21 02:00:00,
2013-01-20 20:05:00,58.0,44.6,30.11,ENE,68,2.0,2.0,61,0.00,,,0.00,VWS V14.01,2013-01-21 02:05:00,
2013-01-20 20:10:00,57.7,44.4,30.11,ESE,113,1.0,2.0,61,0.00,,,0.00,VWS V14.01,2013-01-21 02:10:00,
2013-01-20 20:14:00,57.1,44.2,30.10,ESE,113,1.0,2.0,62,0.00,,,0.00,VWS V14.01,2013-01-21 02:14:00,
2013-01-20 20:15:00,54.9,45.3,30.12,ENE,60,0.0,1.0,70,0.00,,,0.00,VWS V14.01,2013-01-21 02:15:00,
2013-01-20 20:19:00,56.4,44.0,30.10,East,91,0.0,1.0,63,0.00,,,0.00,VWS V14.01,2013-01-21 02:19:00,
2013-01-20 20:20:00,54.9,44.9,30.12,ENE,60,0.0,0.0,69,0.00,,,0.00,VWS V14.01,2013-01-21 02:20:00,
2013-01-20 20:24:00,55.4,43.4,30.11,East,85,0.0,1.0,64,0.00,,,0.00,VWS V14.01,2013-01-21 02:24:00,
2013-01-20 20:25:00,54.0,44.5,30.12,ENE,60,1.0,1.0,70,0.00,,,0.00,VWS V14.01,2013-01-21 02:25:00,
2013-01-20 20:29:00,55.5,44.3,30.11,East,84,0.0,1.0,66,0.00,,,0.00,VWS V14.01,2013-01-21 02:29:00,
2013-01-20 20:30:00,53.4,44.2,30.12,ENE,60,0.0,1.0,71,0.00,,,0.00,VWS V14.01,2013-01-21 02:30:00,
2013-01-20 20:34:00,55.3,44.2,30.11,East,84,1.0,2.0,66,0.00,,,0.00,VWS V14.01,2013-01-21 02:34:00,
2013-01-20 20:35:00,52.4,43.7,30.12,ENE,60,0.0,0.0,72,0.00,,,0.00,VWS V14.01,2013-01-21 02:35:00,
2013-01-20 20:39:00,55.6,44.8,30.11,East,101,2.0,2.0,67,0.00,,,0.00,VWS V14.01,2013-01-21 02:39:00,
2013-01-20 20:40:00,52.0,44.3,30.12,NNE,30,0.0,1.0,75,0.00,,,0.00,VWS V14.01,2013-01-21 02:40:00,
2013-01-20 20:44:00,55.8,45.0,30.11,East,99,1.0,2.0,67,0.00,,,0.00,VWS V14.01,2013-01-21 02:44:00,
2013-01-20 20:45:00,52.6,44.9,30.12,NNE,30,0.0,0.0,75,0.00,,,0.00,VWS V14.01,2013-01-21 02:45:00,
2013-01-20 20:49:00,56.1,44.9,30.11,ENE,68,2.0,2.0,66,0.00,,,0.00,VWS V14.01,2013-01-21 02:49:00,
2013-01-20 20:50:00,53.1,45.0,30.12,NNE,30,0.0,0.0,74,0.00,,,0.00,VWS V14.01,2013-01-21 02:50:00,
2013-01-20 20:54:00,55.9,44.7,30.11,ENE,66,0.0,2.0,66,0.00,,,0.00,VWS V14.01,2013-01-21 02:54:00,
2013-01-20 20:55:00,52.7,43.9,30.12,NNE,30,0.0,0.0,72,0.00,,,0.00,VWS V14.01,2013-01-21 02:55:00,
2013-01-20 20:59:00,55.6,44.8,30.11,ENE,61,0.0,0.0,67,0.00,,,0.00,VWS V14.01,2013-01-21 02:59:00,
2013-01-20 21:00:00,51.2,43.2,30.13,NNE,30,0.0,0.0,74,0.00,,,0.00,VWS V14.01,2013-01-21 03:00:00,
2013-01-20 21:04:00,55.2,44.8,30.12,ENE,61,0.0,0.0,68,0.00,,,0.00,VWS V14.01,2013-01-21 03:04:00,
2013-01-20 21:05:00,50.1,42.5,30.13,NNE,30,0.0,0.0,75,0.00,,,0.00,VWS V14.01,2013-01-21 03:05:00,
2013-01-20 21:09:00,54.9,44.9,30.12,ENE,60,0.0,0.0,69,0.00,,,0.00,VWS V14.01,2013-01-21 03:09:00,
2013-01-20 21:10:00,49.5,42.6,30.13,NNE,30,0.0,0.0,77,0.00,,,0.00,VWS V14.01,2013-01-21 03:10:00,
2013-01-20 21:14:00,54.9,45.3,30.12,ENE,60,0.0,1.0,70,0.00,,,0.00,VWS V14.01,2013-01-21 03:14:00,
2013-01-20 21:15:00,49.0,42.5,30.13,NNE,30,0.0,0.0,78,0.00,,,0.00,VWS V14.01,2013-01-21 03:15:00,
2013-01-20 21:19:00,55.0,45.4,30.12,ENE,60,0.0,0.0,70,0.00,,,0.00,VWS V14.01,2013-01-21 03:19:00,
2013-01-20 21:20:00,49.3,43.7,30.13,NNE,30,0.0,1.0,81,0.00,,,0.00,VWS V14.01,2013-01-21 03:20:00,
2013-01-20 21:24:00,54.1,44.2,30.12,ENE,60,1.0,1.0,69,0.00,,,0.00,VWS V14.01,2013-01-21 03:24:00,
2013-01-20 21:25:00,49.6,43.4,30.14,NNE,30,0.0,0.0,79,0.00,,,0.00,VWS V14.01,2013-01-21 03:25:00,
2013-01-20 21:29:00,53.5,44.3,30.12,ENE,60,0.0,1.0,71,0.00,,,0.00,VWS V14.01,2013-01-21 03:29:00,
2013-01-20 21:30:00,49.5,43.6,30.14,NNE,30,0.0,0.0,80,0.00,,,0.00,VWS V14.01,2013-01-21 03:30:00,
2013-01-20 21:34:00,52.5,43.4,30.12,ENE,60,0.0,0.0,71,0.00,,,0.00,VWS V14.01,2013-01-21 03:34:00,
2013-01-20 21:35:00,49.8,43.9,30.14,NNE,30,0.0,0.0,80,0.00,,,0.00,VWS V14.01,2013-01-21 03:35:00,
2013-01-20 21:39:00,52.0,44.3,30.12,NNE,30,0.0,1.0,75,0.00,,,0.00,VWS V14.01,2013-01-21 03:39:00,
2013-01-20 21:40:00,49.6,43.7,30.14,NNE,30,0.0,0.0,80,0.00,,,0.00,VWS V14.01,2013-01-21 03:40:00,
2013-01-20 21:44:00,52.5,44.8,30.12,NNE,30,0.0,0.0,75,0.00,,,0.00,VWS V14.01,2013-01-21 03:44:00,
2013-01-20 21:45:00,49.7,43.8,30.14,NNE,30,0.0,0.0,80,0.00,,,0.00,VWS V14.01,2013-01-21 03:45:00,
2013-01-20 21:49:00,53.0,45.0,30.12,NNE,30,0.0,0.0,74,0.00,,,0.00,VWS V14.01,2013-01-21 03:49:00,
2013-01-20 21:50:00,49.9,44.0,30.14,NNE,30,0.0,0.0,80,0.00,,,0.00,VWS V14.01,2013-01-21 03:50:00,
2013-01-20 21:54:00,52.8,44.0,30.12,NNE,30,0.0,0.0,72,0.00,,,0.00,VWS V14.01,2013-01-21 03:54:00,
2013-01-20 21:55:00,49.9,44.0,30.14,NNE,31,0.0,0.0,80,0.00,,,0.00,VWS V14.01,2013-01-21 03:55:00,
2013-01-20 21:59:00,51.3,43.0,30.13,NNE,30,0.0,0.0,73,0.00,,,0.00,VWS V14.01,2013-01-21 03:59:00,
2013-01-20 22:00:00,49.6,43.4,30.14,NNE,31,0.0,0.0,79,0.00,,,0.00,VWS V14.01,2013-01-21 04:00:00,
2013-01-20 22:04:00,50.3,42.7,30.13,NNE,30,0.0,0.0,75,0.00,,,0.00,VWS V14.01,2013-01-21 04:04:00,
2013-01-20 22:05:00,49.1,43.2,30.14,NNE,29,0.0,0.0,80,0.00,,,0.00,VWS V14.01,2013-01-21 04:05:00,
2013-01-20 22:09:00,49.6,42.7,30.13,NNE,30,0.0,0.0,77,0.00,,,0.00,VWS V14.01,2013-01-21 04:09:00,
2013-01-20 22:10:00,49.3,44.0,30.14,NNE,29,0.0,0.0,82,0.00,,,0.00,VWS V14.01,2013-01-21 04:10:00,
2013-01-20 22:14:00,49.1,42.5,30.13,NNE,30,0.0,0.0,78,0.00,,,0.00,VWS V14.01,2013-01-21 04:14:00,
2013-01-20 22:15:00,49.8,44.2,30.14,NNE,29,0.0,0.0,81,0.00,,,0.00,VWS V14.01,2013-01-21 04:15:00,
2013-01-20 22:19:00,49.2,43.3,30.13,NNE,30,0.0,1.0,80,0.00,,,0.00,VWS V14.01,2013-01-21 04:19:00,
2013-01-20 22:20:00,49.7,43.8,30.14,NNE,29,0.0,0.0,80,0.00,,,0.00,VWS V14.01,2013-01-21 04:20:00,
2013-01-20 22:24:00,49.5,43.3,30.14,NNE,30,0.0,0.0,79,0.00,,,0.00,VWS V14.01,2013-01-21 04:24:00,
2013-01-20 22:25:00,49.3,43.7,30.14,NNE,29,0.0,0.0,81,0.00,,,0.00,VWS V14.01,2013-01-21 04:25:00,
2013-01-20 22:29:00,49.5,43.6,30.14,NNE,30,0.0,0.0,80,0.00,,,0.00,VWS V14.01,2013-01-21 04:29:00,
2013-01-20 22:30:00,48.9,43.3,30.14,NNE,29,0.0,0.0,81,0.00,,,0.00,VWS V14.01,2013-01-21 04:30:00,
2013-01-20 22:34:00,49.8,43.9,30.14,NNE,30,0.0,0.0,80,0.00,,,0.00,VWS V14.01,2013-01-21 04:34:00,
2013-01-20 22:35:00,48.4,43.5,30.14,NNE,29,0.0,0.0,83,0.00,,,0.00,VWS V14.01,2013-01-21 04:35:00,
2013-01-20 22:39:00,49.6,43.7,30.14,NNE,30,0.0,0.0,80,0.00,,,0.00,VWS V14.01,2013-01-21 04:39:00,
2013-01-20 22:40:00,48.1,42.9,30.14,NNE,29,0.0,0.0,82,0.00,,,0.00,VWS V14.01,2013-01-21 04:40:00,
2013-01-20 22:44:00,49.7,43.8,30.14,NNE,30,0.0,0.0,80,0.00,,,0.00,VWS V14.01,2013-01-21 04:44:00,
2013-01-20 22:45:00,47.6,42.4,30.14,NNE,29,0.0,0.0,82,0.00,,,0.00,VWS V14.01,2013-01-21 04:45:00,
2013-01-20 22:49:00,49.9,44.0,30.14,NNE,30,0.0,0.0,80,0.00,,,0.00,VWS V14.01,2013-01-21 04:49:00,
2013-01-20 22:50:00,47.2,42.6,30.14,NNE,29,0.0,0.0,84,0.00,,,0.00,VWS V14.01,2013-01-21 04:50:00,
2013-01-20 22:54:00,49.9,43.7,30.14,NNE,30,0.0,0.0,79,0.00,,,0.00,VWS V14.01,2013-01-21 04:54:00,
2013-01-20 22:55:00,48.0,44.0,30.13,NNE,29,0.0,0.0,86,0.00,,,0.00,VWS V14.01,2013-01-21 04:55:00,
2013-01-20 22:59:00,49.7,43.5,30.14,NNE,30,0.0,0.0,79,0.00,,,0.00,VWS V14.01,2013-01-21 04:59:00,
2013-01-20 23:00:00,49.6,43.4,30.14,NNE,31,0.0,0.0,79,0.00,,,0.00,VWS V14.01,2013-01-21 05:00:00,
2013-01-20 23:01:00,49.6,43.4,30.14,NNE,33,0.0,0.0,79,0.00,,,0.00,VWS V14.01,2013-01-21 05:01:00,
2013-01-20 23:05:00,47.0,41.8,30.13,NNE,29,0.0,0.0,82,0.00,,,0.00,VWS V14.01,2013-01-21 05:05:00,
2013-01-20 23:07:00,49.0,43.4,30.14,NNE,29,0.0,0.0,81,0.00,,,0.00,VWS V14.01,2013-01-21 05:07:00,
2013-01-20 23:10:00,46.3,41.4,30.13,NNE,29,0.0,0.0,83,0.00,,,0.00,VWS V14.01,2013-01-21 05:10:00,
2013-01-20 23:12:00,49.6,44.3,30.14,NNE,29,0.0,0.0,82,0.00,,,0.00,VWS V14.01,2013-01-21 05:12:00,
2013-01-20 23:15:00,45.9,41.3,30.13,NNE,29,0.0,0.0,84,0.00,,,0.00,VWS V14.01,2013-01-21 05:15:00,
2013-01-20 23:17:00,49.8,43.9,30.14,NNE,29,0.0,0.0,80,0.00,,,0.00,VWS V14.01,2013-01-21 05:17:00,
2013-01-20 23:20:00,45.7,41.5,30.13,NNE,29,0.0,0.0,85,0.00,,,0.00,VWS V14.01,2013-01-21 05:20:00,
2013-01-20 23:22:00,49.5,43.6,30.14,NNE,29,0.0,0.0,80,0.00,,,0.00,VWS V14.01,2013-01-21 05:22:00,
2013-01-20 23:25:00,46.2,42.8,30.13,NNE,29,0.0,0.0,88,0.00,,,0.00,VWS V14.01,2013-01-21 05:25:00,
2013-01-20 23:27:00,49.2,43.6,30.14,NNE,29,0.0,0.0,81,0.00,,,0.00,VWS V14.01,2013-01-21 05:27:00,
2013-01-20 23:30:00,46.5,42.8,30.13,NNE,29,0.0,0.0,87,0.00,,,0.00,VWS V14.01,2013-01-21 05:30:00,
2013-01-20 23:32:00,48.6,43.0,30.14,NNE,29,0.0,0.0,81,0.00,,,0.00,VWS V14.01,2013-01-21 05:32:00,
2013-01-20 23:35:00,46.5,42.5,30.13,NNE,28,0.0,0.0,86,0.00,,,0.00,VWS V14.01,2013-01-21 05:35:00,
2013-01-20 23:37:00,48.4,43.2,30.14,NNE,29,0.0,0.0,82,0.00,,,0.00,VWS V14.01,2013-01-21 05:37:00,
2013-01-20 23:40:00,46.0,41.8,30.13,NNE,28,0.0,0.0,85,0.00,,,0.00,VWS V14.01,2013-01-21 05:40:00,
2013-01-20 23:42:00,47.9,42.7,30.14,NNE,29,0.0,0.0,82,0.00,,,0.00,VWS V14.01,2013-01-21 05:42:00,
2013-01-20 23:45:00,45.5,41.3,30.13,NNE,28,0.0,0.0,85,0.00,,,0.00,VWS V14.01,2013-01-21 05:45:00,
2013-01-20 23:47:00,47.4,42.5,30.14,NNE,29,0.0,0.0,83,0.00,,,0.00,VWS V14.01,2013-01-21 05:47:00,
2013-01-20 23:50:00,45.3,41.4,30.13,NNE,28,0.0,0.0,86,0.00,,,0.00,VWS V14.01,2013-01-21 05:50:00,
2013-01-20 23:52:00,47.3,43.0,30.13,NNE,29,0.0,0.0,85,0.00,,,0.00,VWS V14.01,2013-01-21 05:52:00,
2013-01-20 23:55:00,44.9,41.3,30.13,NNE,28,0.0,0.0,87,0.00,,,0.00,VWS V14.01,2013-01-21 05:55:00,
2013-01-20 23:57:00,48.2,43.6,30.13,NNE,29,0.0,0.0,84,0.00,,,0.00,VWS V14.01,2013-01-21 05:57:00,